Time;durP1;ratioP1;P1;durP2;ratioP2;P2;SDS_P1;SDS_P2;PMS_P1;PMS_P2;Temp;Humidity;BMP_temperature;BMP_pressure;BME280_temperature;BME280_humidity;BME280_pressure;Samples;Min_cycle;Max_cycle;Signal;HPM_P1;HPM_P2
2021/05/08 00:01:55;;;;;;;4.78;3.65;;;3.40;99.90;;;;;;6201718;28;20033;-86
2021/05/08 00:04:55;;;;;;;4.10;3.15;;;3.60;99.90;;;;;;6184862;28;20046;-85
2021/05/08 00:07:56;;;;;;;3.63;3.30;;;3.60;99.90;;;;;;6185210;28;20479;-85
2021/05/08 00:10:57;;;;;;;6.28;3.47;;;4.20;99.90;;;;;;6201440;28;20026;-86
2021/05/08 00:13:57;;;;;;;5.55;3.35;;;4.00;99.90;;;;;;6217871;28;20100;-86
2021/05/08 00:16:58;;;;;;;3.42;3.13;;;;;;;;;;6185059;28;20045;-85
2021/05/08 00:19:59;;;;;;;4.40;3.35;;;;;;;;;;6201226;28;20022;-85
2021/05/08 00:23:00;;;;;;;4.07;3.25;;;;;;;;;;6201101;28;20117;-86
2021/05/08 00:26:02;;;;;;;5.85;4.05;;;3.80;99.90;;;;;;6217676;28;20022;-86
2021/05/08 00:29:04;;;;;;;4.57;3.88;;;;;;;;;;6185679;28;20080;-84
2021/05/08 00:32:05;;;;;;;4.22;3.80;;;;;;;;;;6201155;28;20137;-85
2021/05/08 00:35:05;;;;;;;5.25;3.55;;;3.80;99.90;;;;;;6217503;28;20034;-85
2021/05/08 00:38:06;;;;;;;5.40;3.70;;;;;;;;;;6168472;28;20057;-87
2021/05/08 00:41:07;;;;;;;8.25;3.67;;;3.90;99.90;;;;;;6201379;28;20080;-86
2021/05/08 00:44:08;;;;;;;4.75;3.10;;;;;;;;;;6185027;28;20026;-85
2021/05/08 00:47:11;;;;;;;3.88;3.47;;;;;;;;;;6221490;28;20022;-86
2021/05/08 00:50:12;;;;;;;3.85;3.45;;;3.90;99.90;;;;;;6206478;28;20449;-86
2021/05/08 00:53:12;;;;;;;3.55;3.15;;;3.90;99.90;;;;;;6189420;28;20033;-86
2021/05/08 00:56:13;;;;;;;3.97;3.28;;;6.70;99.90;;;;;;6206276;28;20030;-85
2021/05/08 00:59:14;;;;;;;4.22;3.42;;;3.90;99.90;;;;;;6189717;28;20030;-86
2021/05/08 01:02:15;;;;;;;3.78;3.13;;;3.80;99.90;;;;;;6189520;28;20033;-86
2021/05/08 01:05:15;;;;;;;4.07;3.50;;;5.30;99.90;;;;;;6189257;28;20034;-85
2021/05/08 01:08:16;;;;;;;4.32;3.15;;;4.00;99.90;;;;;;6189603;28;20037;-85
2021/05/08 01:11:17;;;;;;;4.53;3.30;;;3.50;99.90;;;;;;6189251;28;20402;-86
2021/05/08 01:14:18;;;;;;;4.38;3.17;;;4.60;99.90;;;;;;6189490;28;20065;-86
2021/05/08 01:17:19;;;;;;;4.05;3.17;;;;;;;;;;6189488;28;20025;-87
2021/05/08 01:20:20;;;;;;;5.88;3.25;;;;;;;;;;6221934;28;20025;-86
2021/05/08 01:23:20;;;;;;;3.95;3.40;;;3.60;99.90;;;;;;6205548;28;20096;-85
2021/05/08 01:26:21;;;;;;;5.93;4.28;;;;;;;;;;6188822;28;20033;-85
2021/05/08 01:29:22;;;;;;;5.30;3.83;;;;;;;;;;6205431;28;20022;-86
2021/05/08 01:32:23;;;;;;;4.00;3.60;;;3.60;99.90;;;;;;6205027;28;20049;-86
2021/05/08 01:35:24;;;;;;;3.85;3.45;;;;;;;;;;6188799;28;20045;-86
2021/05/08 01:38:25;;;;;;;6.85;3.55;;;3.40;99.90;;;;;;6221599;28;20092;-86
2021/05/08 01:41:25;;;;;;;5.20;3.22;;;3.90;99.90;;;;;;6205209;28;20034;-85
2021/05/08 01:44:26;;;;;;;4.20;3.80;;;;;;;;;;6188436;28;20030;-86
2021/05/08 01:47:27;;;;;;;5.30;3.33;;;3.30;99.90;;;;;;6205020;28;20138;-86
2021/05/08 01:50:27;;;;;;;4.80;3.20;;;3.90;99.90;;;;;;6204620;28;20025;-85
2021/05/08 01:53:28;;;;;;;7.35;3.53;;;3.10;99.90;;;;;;6188456;28;20431;-85
2021/05/08 01:56:29;;;;;;;3.95;3.40;;;3.40;99.90;;;;;;6188499;28;20469;-85
2021/05/08 01:59:30;;;;;;;4.82;3.40;;;;;;;;;;6187809;28;20029;-86
2021/05/08 02:02:31;;;;;;;4.15;3.40;;;3.10;99.90;;;;;;6204759;28;20037;-86
2021/05/08 02:05:33;;;;;;;5.13;3.95;;;3.10;99.90;;;;;;6188368;28;20480;-85
2021/05/08 02:08:34;;;;;;;4.23;3.50;;;;;;;;;;6188255;28;20033;-85
2021/05/08 02:11:34;;;;;;;4.68;3.75;;;2.60;99.90;;;;;;6222594;28;20070;-86
2021/05/08 02:14:35;;;;;;;4.13;3.72;;;3.20;99.90;;;;;;6187991;28;20042;-86
2021/05/08 02:17:36;;;;;;;4.63;3.60;;;3.10;99.90;;;;;;6187855;28;20038;-85
2021/05/08 02:20:40;;;;;;;4.50;3.20;;;4.10;99.90;;;;;;6187877;28;20081;-86
2021/05/08 02:23:41;;;;;;;4.63;3.53;;;3.10;99.90;;;;;;6188562;28;20030;-85
2021/05/08 02:26:42;;;;;;;5.97;3.85;;;4.40;99.90;;;;;;6204128;28;20898;-86
2021/05/08 02:29:42;;;;;;;4.85;3.72;;;3.30;99.90;;;;;;6186989;28;20034;-85
2021/05/08 02:32:43;;;;;;;7.72;3.90;;;;;;;;;;6187776;28;20280;-85
2021/05/08 02:35:44;;;;;;;5.18;3.40;;;2.80;99.90;;;;;;6203741;28;20038;-86
2021/05/08 02:38:44;;;;;;;5.40;3.60;;;4.50;99.90;;;;;;6187348;28;20480;-86
2021/05/08 02:41:45;;;;;;;6.05;3.50;;;3.40;99.90;;;;;;6187631;28;20088;-86
2021/05/08 02:44:46;;;;;;;5.82;3.70;;;;;;;;;;6187365;28;20052;-85
2021/05/08 02:47:47;;;;;;;5.75;3.55;;;3.00;99.90;;;;;;6203464;28;20120;-86
2021/05/08 02:50:48;;;;;;;7.75;4.38;;;;;;;;;;6187196;28;20041;-85
2021/05/08 02:53:49;;;;;;;4.25;3.67;;;2.90;99.90;;;;;;6203158;28;20038;-86
2021/05/08 02:56:50;;;;;;;5.63;3.78;;;;;;;;;;6187030;28;20029;-86
2021/05/08 02:59:50;;;;;;;4.97;3.47;;;2.90;99.90;;;;;;6203276;28;20068;-86
2021/05/08 03:02:51;;;;;;;3.78;3.42;;;3.30;99.90;;;;;;6186787;28;20037;-85
2021/05/08 03:05:51;;;;;;;5.18;3.50;;;3.50;99.90;;;;;;6186660;28;20040;-85
2021/05/08 03:08:52;;;;;;;5.05;3.70;;;5.60;99.90;;;;;;6202236;28;20469;-86
2021/05/08 03:11:53;;;;;;;5.90;3.83;;;;;;;;;;6186535;28;20030;-87
2021/05/08 03:14:53;;;;;;;4.18;3.10;;;2.70;99.90;;;;;;6203045;28;20522;-85
2021/05/08 03:17:54;;;;;;;4.50;3.25;;;;;;;;;;6186593;28;20026;-85
2021/05/08 03:20:55;;;;;;;5.32;3.85;;;;;;;;;;6202912;28;20057;-86
2021/05/08 03:23:56;;;;;;;5.25;3.65;;;2.60;99.90;;;;;;6202599;28;20480;-87
2021/05/08 03:26:57;;;;;;;3.83;3.40;;;2.70;99.90;;;;;;6202796;28;20034;-86
2021/05/08 03:29:57;;;;;;;4.55;3.28;;;1.80;99.90;;;;;;6185946;28;20093;-86
2021/05/08 03:32:58;;;;;;;4.47;3.78;;;3.00;99.90;;;;;;6202659;28;20076;-86
2021/05/08 03:35:58;;;;;;;4.40;3.38;;;2.40;99.90;;;;;;6186397;28;20092;-85
2021/05/08 03:38:59;;;;;;;6.07;3.63;;;;;;;;;;6186344;28;20160;-87
2021/05/08 03:42:00;;;;;;;4.05;3.28;;;;;;;;;;6219022;28;20508;-86
2021/05/08 03:45:01;;;;;;;4.10;3.45;;;2.50;99.90;;;;;;6202534;28;20025;-86
2021/05/08 03:48:02;;;;;;;4.00;3.40;;;2.50;99.90;;;;;;6202739;28;20034;-87
2021/05/08 03:51:03;;;;;;;6.30;3.40;;;;;;;;;;6186190;28;20068;-86
2021/05/08 03:54:04;;;;;;;4.45;3.60;;;2.60;99.90;;;;;;6202350;28;20518;-86
2021/05/08 03:57:05;;;;;;;7.40;3.45;;;;;;;;;;6186111;28;20022;-86
2021/05/08 04:00:06;;;;;;;3.60;3.30;;;;;;;;;;6201974;28;21040;-86
2021/05/08 04:03:07;;;;;;;4.22;3.72;;;;;;;;;;6202221;28;20034;-86
2021/05/08 04:06:08;;;;;;;4.53;3.30;;;;;;;;;;6202269;28;20026;-86
2021/05/08 04:09:10;;;;;;;3.45;3.10;;;;;;;;;;6202049;28;20022;-86
2021/05/08 04:12:11;;;;;;;13.68;8.77;;;;;;;;;;6201962;28;20025;-85
2021/05/08 04:15:12;;;;;;;5.05;3.63;;;2.60;99.90;;;;;;6218275;28;20037;-85
2021/05/08 04:18:13;;;;;;;5.85;4.13;;;;;;;;;;6185180;28;20144;-85
2021/05/08 04:21:14;;;;;;;45.42;24.63;;;;;;;;;;6201420;28;20060;-85
2021/05/08 04:24:15;;;;;;;8.38;6.20;;;;;;;;;;6201831;28;20116;-86
2021/05/08 04:27:16;;;;;;;10.57;4.63;;;3.00;99.90;;;;;;6201362;28;20821;-85
2021/05/08 04:30:17;;;;;;;4.72;4.07;;;4.00;99.90;;;;;;6185231;28;20050;-85
2021/05/08 04:33:21;;;;;;;5.35;3.63;;;4.00;99.90;;;;;;6184862;28;20057;-86
2021/05/08 04:36:22;;;;;;;6.97;4.05;;;;;;;;;;6185338;28;20480;-86
2021/05/08 04:39:24;;;;;;;5.82;4.50;;;3.90;99.90;;;;;;6201400;28;20032;-86
2021/05/08 04:42:25;;;;;;;136.30;115.85;;;;;;;;;;6185913;28;20068;-86
2021/05/08 04:45:26;;;;;;;129.57;106.15;;;4.80;99.10;;;;;;6201508;28;20468;-86
2021/05/08 04:48:28;;;;;;;30.60;27.58;;;6.20;99.90;;;;;;6201280;28;20029;-86
2021/05/08 04:51:29;;;;;;;6.75;4.78;;;4.80;99.90;;;;;;6201481;28;20045;-86
2021/05/08 04:54:30;;;;;;;4.45;3.42;;;;;;;;;;6201595;28;20046;-86
2021/05/08 04:57:30;;;;;;;6.32;5.05;;;5.40;97.80;;;;;;6201383;28;20368;-86
2021/05/08 05:00:31;;;;;;;5.93;5.38;;;5.70;98.80;;;;;;6185269;28;20028;-87
2021/05/08 05:03:32;;;;;;;5.18;3.67;;;;;;;;;;6185195;28;20034;-85
2021/05/08 05:06:33;;;;;;;3.92;3.20;;;6.60;99.90;;;;;;6201235;28;20066;-85
2021/05/08 05:09:33;;;;;;;3.60;3.30;;;6.80;97.40;;;;;;6185189;28;20064;-85
2021/05/08 05:12:34;;;;;;;5.25;3.47;;;;;;;;;;6184857;28;20513;-86
2021/05/08 05:15:45;;;;;;;4.43;4.03;;;6.80;96.40;;;;;;6200936;28;20058;-86
2021/05/08 05:18:46;;;;;;;4.63;3.30;;;6.80;96.70;;;;;;6185287;28;20026;-85
2021/05/08 05:21:46;;;;;;;4.78;3.20;;;6.90;96.20;;;;;;6184838;28;20026;-85
2021/05/08 05:24:47;;;;;;;4.05;3.40;;;;;;;;;;6184806;28;20392;-86
2021/05/08 05:27:48;;;;;;;4.10;3.25;;;7.00;94.90;;;;;;6201821;28;20068;-85
2021/05/08 05:30:49;;;;;;;4.43;3.45;;;7.60;99.90;;;;;;6186220;28;20455;-87
2021/05/08 05:37:34;;;;;;;4.07;3.28;;;;;;;;;;6125100;29;20149;-85
2021/05/08 05:40:38;;;;;;;3.58;3.10;;;8.00;94.00;;;;;;6117677;29;20520;-87
2021/05/08 05:43:42;;;;;;;3.70;3.08;;;;;;;;;;6131464;29;20708;-85
2021/05/08 05:46:42;;;;;;;3.40;3.10;;;8.80;99.90;;;;;;6130788;29;20030;-85
2021/05/08 05:49:43;;;;;;;7.43;4.90;;;8.90;99.90;;;;;;6115599;29;20039;-86
2021/05/08 05:52:44;;;;;;;6.47;3.83;;;;;;;;;;6129864;29;20130;-86
2021/05/08 05:55:45;;;;;;;5.63;4.63;;;;;;;;;;6130895;29;20047;-86
2021/05/08 05:58:45;;;;;;;5.85;4.85;;;8.60;93.10;;;;;;6125366;29;20481;-86
2021/05/08 06:01:46;;;;;;;6.05;4.20;;;;;;;;;;6102729;29;20036;-86
2021/05/08 06:04:56;;;;;;;5.15;3.30;;;10.20;92.90;;;;;;6113719;29;20031;-87
2021/05/08 06:07:56;;;;;;;5.03;3.95;;;10.00;94.30;;;;;;6114941;29;20191;-86
2021/05/08 06:10:57;;;;;;;6.28;3.90;;;;;;;;;;6122140;29;20035;-86
2021/05/08 06:13:58;;;;;;;6.00;3.60;;;;;;;;;;6158164;28;20184;-86
2021/05/08 06:16:59;;;;;;;4.50;3.55;;;10.30;97.30;;;;;;6204612;28;20396;-86
2021/05/08 06:20:00;;;;;;;12.48;7.03;;;10.30;91.00;;;;;;6220945;28;20018;-86
2021/05/08 06:23:02;;;;;;;5.18;3.47;;;10.70;91.60;;;;;;6188114;28;20542;-86
2021/05/08 06:26:03;;;;;;;7.10;4.05;;;10.30;91.40;;;;;;6188953;28;20061;-86
2021/05/08 06:29:04;;;;;;;6.72;3.60;;;;;;;;;;6188420;28;20096;-86
2021/05/08 06:32:05;;;;;;;4.65;3.33;;;10.80;99.30;;;;;;6203996;28;20046;-87
2021/05/08 06:35:06;;;;;;;10.23;7.07;;;11.40;91.60;;;;;;6204215;28;20125;-86
2021/05/08 06:38:07;;;;;;;7.47;5.28;;;10.90;90.90;;;;;;6204875;28;20112;-86
2021/05/08 06:41:08;;;;;;;6.28;3.85;;;;;;;;;;6204268;28;20037;-87
2021/05/08 06:44:08;;;;;;;4.80;4.32;;;13.10;99.50;;;;;;6203848;28;20026;-82
2021/05/08 06:47:14;;;;;;;5.38;4.88;;;13.80;92.70;;;;;;6219287;28;20437;-83
2021/05/08 06:50:15;;;;;;;6.70;4.25;;;14.20;91.20;;;;;;6204281;28;20045;-83
2021/05/08 06:53:16;;;;;;;5.85;4.00;;;15.50;87.30;;;;;;6187378;28;20062;-83
2021/05/08 06:56:16;;;;;;;4.47;3.42;;;15.70;83.60;;;;;;6203081;28;20077;-81
2021/05/08 06:59:17;;;;;;;4.30;3.03;;;16.10;82.10;;;;;;6219733;28;20038;-80
2021/05/08 07:02:17;;;;;;;4.30;3.42;;;16.70;79.40;;;;;;6218885;28;20767;-86
2021/05/08 07:05:18;;;;;;;4.90;3.72;;;;;;;;;;6220700;28;20029;-81
2021/05/08 07:08:20;;;;;;;5.80;4.57;;;17.90;73.20;;;;;;6203396;28;20026;-81
2021/05/08 07:11:21;;;;;;;6.88;4.32;;;17.90;77.20;;;;;;6203182;28;20468;-80
2021/05/08 07:14:21;;;;;;;4.68;4.18;;;18.10;89.80;;;;;;6202984;28;20044;-80
2021/05/08 07:17:23;;;;;;;14.55;10.30;;;;;;;;;;6215797;28;20121;-84
2021/05/08 07:20:26;;;;;;;5.40;4.10;;;18.70;89.80;;;;;;6202043;28;20038;-80
2021/05/08 07:23:27;;;;;;;4.80;4.30;;;;;;;;;;6219342;28;20038;-79
2021/05/08 07:26:28;;;;;;;6.40;3.88;;;;;;;;;;6218526;28;20033;-80
2021/05/08 07:29:29;;;;;;;4.40;3.45;;;18.70;80.80;;;;;;6218470;28;20499;-79
2021/05/08 07:32:30;;;;;;;11.30;4.30;;;;;;;;;;6201251;28;20049;-81
2021/05/08 07:35:31;;;;;;;4.65;3.20;;;18.40;76.60;;;;;;6220176;28;20037;-79
2021/05/08 07:38:31;;;;;;;4.53;2.88;;;18.50;61.40;;;;;;6217265;28;20038;-80
2021/05/08 07:41:32;;;;;;;3.78;2.90;;;19.10;63.30;;;;;;6201454;28;20079;-80
2021/05/08 07:44:33;;;;;;;5.32;3.70;;;19.50;60.60;;;;;;6219611;28;20960;-78
2021/05/08 07:47:33;;;;;;;9.27;3.95;;;19.90;59.00;;;;;;6219328;28;20034;-77
2021/05/08 07:50:34;;;;;;;5.00;3.17;;;20.20;57.80;;;;;;6218457;28;20052;-78
2021/05/08 07:53:34;;;;;;;3.65;3.25;;;20.60;57.50;;;;;;6217760;28;20030;-78
2021/05/08 07:56:37;;;;;;;5.93;3.60;;;20.80;55.20;;;;;;6217341;28;20026;-78
2021/05/08 07:59:37;;;;;;;3.53;2.72;;;20.90;54.90;;;;;;6217964;28;20160;-78
2021/05/08 08:02:38;;;;;;;4.03;2.90;;;21.10;54.50;;;;;;6218156;28;20044;-79
2021/05/08 08:05:39;;;;;;;4.68;3.03;;;21.10;53.90;;;;;;6218017;28;20081;-77
2021/05/08 08:08:39;;;;;;;3.00;2.70;;;21.30;52.70;;;;;;6201498;28;20041;-78
2021/05/08 08:11:40;;;;;;;3.83;2.38;;;21.60;52.50;;;;;;6217975;28;20026;-78
2021/05/08 08:14:40;;;;;;;3.97;2.65;;;21.70;52.40;;;;;;6185206;28;20065;-83
2021/05/08 08:17:41;;;;;;;6.53;3.50;;;21.70;52.30;;;;;;6201345;28;20492;-84
2021/05/08 08:20:42;;;;;;;4.57;2.33;;;22.00;53.90;;;;;;6201762;28;20030;-85
2021/05/08 08:23:42;;;;;;;2.90;2.30;;;22.30;52.20;;;;;;6219045;28;20369;-85
2021/05/08 08:26:43;;;;;;;2.22;2.03;;;22.50;66.10;;;;;;6184916;28;20080;-86
2021/05/08 08:30:09;;;;;;;4.55;2.58;;;22.60;67.70;;;;;;6185214;28;20026;-89
2021/05/08 08:33:10;;;;;;;6.10;2.85;;;26.20;51.80;;;;;;6160857;28;20042;-85
2021/05/08 08:36:10;;;;;;;3.72;2.67;;;22.80;51.80;;;;;;6146416;28;20142;-84
2021/05/08 08:39:11;;;;;;;4.63;2.45;;;22.70;51.40;;;;;;6161799;28;20571;-86
2021/05/08 08:42:12;;;;;;;3.67;2.33;;;23.00;47.10;;;;;;6143926;28;20030;-86
2021/05/08 08:45:13;;;;;;;13.75;5.18;;;23.00;46.70;;;;;;6160914;28;20038;-83
2021/05/08 08:48:14;;;;;;;3.45;2.75;;;23.20;52.40;;;;;;6161101;28;20393;-86
2021/05/08 08:51:15;;;;;;;3.42;2.60;;;23.50;47.80;;;;;;6144949;28;20037;-86
2021/05/08 08:54:15;;;;;;;3.13;2.40;;;23.50;46.60;;;;;;6160857;28;20042;-87
2021/05/08 08:57:18;;;;;;;2.88;2.28;;;23.40;48.20;;;;;;6144612;28;20444;-86
2021/05/08 09:00:19;;;;;;;3.33;2.55;;;23.20;62.90;;;;;;6146816;28;20030;-85
2021/05/08 09:03:19;;;;;;;2.65;2.45;;;23.20;48.60;;;;;;6145296;28;20030;-82
2021/05/08 09:06:20;;;;;;;3.33;2.40;;;23.50;47.40;;;;;;6160606;28;20109;-85
2021/05/08 09:09:22;;;;;;;2.83;2.25;;;23.70;48.80;;;;;;6165242;28;20034;-85
2021/05/08 09:12:27;;;;;;;4.63;2.60;;;23.80;62.90;;;;;;6149837;28;20034;-85
2021/05/08 09:15:57;;;;;;;2.22;1.90;;;23.80;46.80;;;;;;6166088;28;20093;-85
2021/05/08 09:18:57;;;;;;;2.08;1.88;;;23.80;47.30;;;;;;6068516;29;20079;-85
2021/05/08 09:21:58;;;;;;;2.20;2.00;;;23.80;45.80;;;;;;6084403;29;20606;-85
2021/05/08 09:24:59;;;;;;;4.18;1.92;;;23.90;47.10;;;;;;6084339;29;20464;-84
2021/05/08 09:28:00;;;;;;;2.83;2.33;;;23.80;45.80;;;;;;6068305;29;20126;-83
2021/05/08 09:31:01;;;;;;;2.83;2.13;;;23.40;45.10;;;;;;6097013;29;20132;-84
2021/05/08 09:34:02;;;;;;;2.53;2.33;;;23.70;47.30;;;;;;6131091;29;20046;-83
2021/05/08 09:37:02;;;;;;;2.45;2.25;;;23.80;45.50;;;;;;6131151;29;20047;-83
2021/05/08 09:40:32;;;;;;;2.47;2.10;;;23.80;74.70;;;;;;6130914;29;20067;-84
2021/05/08 09:43:33;;;;;;;7.00;3.63;;;24.10;48.80;;;;;;6076015;29;20046;-83
2021/05/08 09:46:33;;;;;;;6.18;2.60;;;24.20;48.80;;;;;;6045250;29;20500;-81
2021/05/08 09:49:34;;;;;;;3.60;2.22;;;24.40;47.20;;;;;;6075195;29;20052;-82
2021/05/08 09:52:54;;;;;;;3.65;2.60;;;24.50;45.60;;;;;;6080091;29;20463;-82
2021/05/08 09:55:55;;;;;;;2.90;2.38;;;24.20;44.50;;;;;;6059699;29;20060;-82
2021/05/08 09:58:55;;;;;;;2.47;2.27;;;24.50;44.00;;;;;;6044242;29;20028;-82
2021/05/08 10:02:02;;;;;;;2.38;2.17;;;24.50;46.10;;;;;;6044182;29;20044;-82
2021/05/08 10:05:10;;;;;;;2.63;2.20;;;24.70;44.10;;;;;;6058853;29;20556;-82
2021/05/08 10:08:10;;;;;;;2.67;2.28;;;24.30;42.90;;;;;;6043338;29;20065;-82
2021/05/08 10:11:11;;;;;;;3.27;2.30;;;24.30;43.90;;;;;;6057862;29;20033;-82
2021/05/08 10:14:12;;;;;;;2.45;2.25;;;24.00;43.60;;;;;;6042399;29;20052;-83
2021/05/08 10:17:13;;;;;;;3.53;2.40;;;23.80;44.50;;;;;;6059665;29;20049;-83
2021/05/08 10:20:14;;;;;;;3.70;2.30;;;23.80;47.80;;;;;;6142264;28;20069;-83
2021/05/08 10:23:15;;;;;;;3.47;2.40;;;23.60;45.60;;;;;;6147685;28;20034;-83
2021/05/08 10:26:16;;;;;;;2.67;2.00;;;23.50;46.50;;;;;;6164338;28;20053;-83
2021/05/08 10:29:17;;;;;;;2.38;2.00;;;24.20;62.40;;;;;;6164001;28;20037;-82
2021/05/08 10:32:18;;;;;;;3.35;2.15;;;24.50;56.80;;;;;;6189975;28;20078;-82
2021/05/08 10:35:42;;;;;;;5.63;2.47;;;24.30;55.60;;;;;;6203789;28;20148;-83
2021/05/08 10:38:44;;;;;;;3.80;2.17;;;24.40;42.80;;;;;;6205109;28;20040;-82
2021/05/08 10:41:51;;;;;;;2.92;2.20;;;24.10;54.00;;;;;;6187362;28;20041;-83
2021/05/08 10:44:52;;;;;;;4.93;2.58;;;23.80;56.30;;;;;;6187298;28;20057;-83
2021/05/08 10:47:59;;;;;;;3.77;2.43;;;23.60;45.70;;;;;;6203784;28;20029;-84
2021/05/08 10:51:00;;;;;;;3.15;2.45;;;23.40;47.20;;;;;;6219624;28;20435;-87
2021/05/08 10:54:01;;;;;;;4.30;2.60;;;;;;;;;;6185804;28;20137;-84
2021/05/08 10:57:18;;;;;;;4.20;2.00;;;23.20;46.70;;;;;;6219358;28;20069;-84
2021/05/08 11:00:19;;;;;;;3.40;2.05;;;23.00;56.80;;;;;;6187389;28;20034;-85
2021/05/08 11:03:22;;;;;;;2.23;1.93;;;23.10;43.40;;;;;;6213882;28;20123;-83
2021/05/08 11:06:23;;;;;;;3.72;2.10;;;23.20;49.10;;;;;;6182366;28;20026;-82
2021/05/08 11:09:30;;;;;;;2.63;2.17;;;23.30;48.50;;;;;;6201301;28;20480;-83
2021/05/08 11:13:10;;;;;;;2.55;2.03;;;23.70;47.90;;;;;;6186029;28;20026;-83
2021/05/08 11:16:17;;;;;;;3.20;2.25;;;24.20;44.80;;;;;;6107052;28;20047;-84
2021/05/08 11:19:22;;;;;;;3.92;2.30;;;24.10;47.10;;;;;;6127849;29;20035;-85
2021/05/08 11:22:30;;;;;;;7.85;2.30;;;24.40;42.80;;;;;;6121025;28;20040;-84
2021/05/08 11:25:31;;;;;;;2.88;1.90;;;24.30;47.20;;;;;;6123149;29;20035;-83
2021/05/08 11:28:32;;;;;;;3.37;2.10;;;23.80;49.00;;;;;;6110863;29;20044;-83
2021/05/08 11:31:36;;;;;;;3.85;1.85;;;23.70;50.40;;;;;;6126559;29;20078;-84
2021/05/08 11:34:37;;;;;;;2.72;1.83;;;23.60;47.90;;;;;;6127436;29;20059;-84
2021/05/08 11:37:37;;;;;;;1.80;1.70;;;23.50;74.40;;;;;;6117746;29;20239;-83
2021/05/08 11:40:38;;;;;;;1.75;1.50;;;23.20;47.10;;;;;;6118669;29;20509;-83
2021/05/08 11:43:38;;;;;;;1.33;1.23;;;22.50;73.60;;;;;;6121068;29;20102;-82
2021/05/08 11:46:39;;;;;;;1.98;1.77;;;22.60;47.90;;;;;;6163574;28;20050;-82
2021/05/08 11:49:39;;;;;;;1.00;1.00;;;22.10;72.80;;;;;;6185631;28;20029;-84
2021/05/08 11:52:48;;;;;;;1.35;1.20;;;22.40;56.90;;;;;;6199068;28;20105;-80
2021/05/08 11:55:48;;;;;;;1.00;1.00;;;22.20;53.40;;;;;;6199959;28;20111;-84
2021/05/08 11:58:51;;;;;;;2.83;1.30;;;22.00;57.00;;;;;;6184547;28;20018;-85
2021/05/08 12:02:15;;;;;;;1.42;1.20;;;21.70;51.60;;;;;;6201394;28;20036;-86
2021/05/08 12:05:16;;;;;;;0.80;0.80;;;21.50;72.50;;;;;;6201927;28;20611;-85
2021/05/08 12:08:23;;;;;;;0.95;0.95;;;21.60;56.20;;;;;;6185634;28;20030;-86
2021/05/08 12:11:24;;;;;;;0.75;0.73;;;21.70;57.80;;;;;;6187432;28;20510;-85
2021/05/08 12:14:25;;;;;;;5.07;2.10;;;;;;;;;;6171958;28;20038;-89
2021/05/08 12:17:25;;;;;;;2.08;0.90;;;22.40;59.50;;;;;;6204474;28;20026;-85
2021/05/08 12:20:27;;;;;;;2.83;1.08;;;22.20;48.50;;;;;;6185501;28;20041;-81
2021/05/08 12:23:28;;;;;;;1.42;1.30;;;22.20;46.50;;;;;;6201992;28;20029;-84
2021/05/08 12:26:29;;;;;;;1.15;1.05;;;21.90;48.80;;;;;;6217045;28;20472;-81
2021/05/08 12:29:57;;;;;;;1.00;1.00;;;20.00;48.60;;;;;;6232409;28;20041;-79
2021/05/08 12:32:58;;;;;;;1.20;1.13;;;;;;;;;;6216897;28;20145;-77
2021/05/08 12:35:59;;;;;;;1.00;1.00;;;;;;;;;;6218649;28;20081;-77
2021/05/08 12:39:19;;;;;;;1.90;0.98;;;22.90;58.70;;;;;;6217403;28;20040;-79
2021/05/08 12:42:20;;;;;;;1.75;1.15;;;22.80;81.40;;;;;;6217250;28;20149;-82
2021/05/08 12:45:20;;;;;;;1.17;1.17;;;23.00;64.40;;;;;;6199515;28;20026;-78
2021/05/08 12:48:31;;;;;;;1.08;0.77;;;23.20;49.60;;;;;;6216596;28;20057;-79
2021/05/08 12:51:34;;;;;;;1.10;1.10;;;23.00;50.60;;;;;;6200455;28;20500;-80
2021/05/08 12:54:34;;;;;;;1.17;1.10;;;22.50;49.20;;;;;;6217177;28;20040;-79
2021/05/08 12:57:36;;;;;;;3.78;1.45;;;22.30;49.60;;;;;;6216875;28;20034;-79
2021/05/08 13:00:51;;;;;;;2.03;1.20;;;22.20;52.10;;;;;;6218631;28;20109;-78
2021/05/08 13:03:52;;;;;;;1.75;1.65;;;22.40;50.40;;;;;;6186286;28;20048;-86
2021/05/08 13:06:52;;;;;;;1.75;1.42;;;22.50;52.10;;;;;;6201136;28;20096;-79
2021/05/08 13:10:18;;;;;;;1.10;1.00;;;22.40;68.60;;;;;;6219595;28;20095;-88
2021/05/08 13:13:24;;;;;;;1.50;1.40;;;22.40;50.80;;;;;;6218212;28;20038;-88
2021/05/08 13:16:24;;;;;;;1.30;1.20;;;22.30;50.90;;;;;;6184156;28;20037;-86
2021/05/08 13:19:26;;;;;;;2.20;1.50;;;22.80;54.80;;;;;;6200675;28;20026;-88
2021/05/08 13:22:27;;;;;;;1.67;1.58;;;22.70;65.60;;;;;;6184685;28;20025;-86
2021/05/08 13:25:27;;;;;;;2.70;1.42;;;22.60;49.80;;;;;;6185349;28;20033;-88
2021/05/08 13:28:28;;;;;;;2.53;2.00;;;23.10;54.50;;;;;;6185004;28;20457;-88
2021/05/08 13:31:29;;;;;;;2.85;1.70;;;;;;;;;;6184685;28;20054;-85
2021/05/08 13:34:30;;;;;;;1.70;1.60;;;;;;;;;;6201180;28;20045;-87
2021/05/08 13:37:31;;;;;;;1.48;1.38;;;;;;;;;;6217357;28;20172;-88
2021/05/08 13:40:32;;;;;;;1.67;1.40;;;;;;;;;;6201689;28;20117;-88
2021/05/08 13:43:32;;;;;;;1.75;1.40;;;23.00;47.20;;;;;;6201609;28;20068;-89
2021/05/08 13:46:34;;;;;;;1.50;1.40;;;23.00;51.70;;;;;;6184523;28;20022;-87
2021/05/08 13:49:35;;;;;;;1.40;1.30;;;22.90;50.90;;;;;;6184227;28;20034;-86
2021/05/08 13:52:35;;;;;;;2.45;1.50;;;22.90;68.80;;;;;;6217036;28;20546;-85
2021/05/08 13:56:01;;;;;;;1.60;1.50;;;25.40;57.00;;;;;;6186357;28;20042;-84
2021/05/08 13:59:02;;;;;;;1.80;1.70;;;23.20;71.10;;;;;;6203825;28;20480;-84
2021/05/08 14:02:03;;;;;;;1.88;1.77;;;23.00;52.90;;;;;;6188394;28;20041;-85
2021/05/08 14:05:04;;;;;;;1.58;1.48;;;23.10;53.50;;;;;;6188347;28;20120;-85
2021/05/08 14:08:05;;;;;;;3.65;1.85;;;22.90;69.90;;;;;;6204360;28;20034;-84
2021/05/08 14:11:06;;;;;;;1.60;1.50;;;22.80;72.30;;;;;;6187933;28;20149;-85
2021/05/08 14:14:07;;;;;;;1.95;1.55;;;;;;;;;;6204394;28;20041;-86
2021/05/08 14:17:07;;;;;;;2.13;1.92;;;;;;;;;;6203810;28;20049;-80
2021/05/08 14:20:09;;;;;;;1.73;1.63;;;22.80;53.20;;;;;;6204458;28;20125;-86
2021/05/08 14:23:09;;;;;;;2.00;1.60;;;22.90;57.30;;;;;;6204445;28;20080;-85
2021/05/08 14:26:10;;;;;;;1.98;1.73;;;22.80;55.60;;;;;;6187407;28;20285;-86
2021/05/08 14:29:12;;;;;;;2.28;2.08;;;22.40;70.10;;;;;;6201751;28;20033;-86
2021/05/08 14:32:12;;;;;;;1.92;1.77;;;22.60;69.70;;;;;;6183592;28;20046;-88
2021/05/08 14:35:13;;;;;;;2.47;1.67;;;;;;;;;;6184246;28;20073;-88
2021/05/08 14:38:14;;;;;;;2.83;1.80;;;22.60;83.00;;;;;;6203898;28;20065;-87
2021/05/08 14:41:14;;;;;;;2.53;1.88;;;22.50;71.20;;;;;;6187742;28;20030;-87
2021/05/08 14:44:15;;;;;;;1.60;1.50;;;;;;;;;;6187597;28;20034;-89
2021/05/08 14:47:17;;;;;;;14.43;13.05;;;;;;;;;;6202433;28;20040;-87
2021/05/08 14:50:19;;;;;;;2.40;1.77;;;;;;;;;;6202788;28;20073;-87
2021/05/08 14:53:20;;;;;;;2.72;1.70;;;;;;;;;;6203855;28;20030;-87
2021/05/08 14:56:26;;;;;;;2.22;1.88;;;22.00;85.50;;;;;;6203560;28;20447;-87
2021/05/08 14:59:26;;;;;;;3.35;1.70;;;22.10;84.80;;;;;;6189301;28;20121;-87
2021/05/08 15:02:27;;;;;;;2.83;1.73;;;;;;;;;;6187191;28;20091;-89
2021/05/08 15:05:28;;;;;;;1.80;1.70;;;;;;;;;;6203927;28;20121;-88
2021/05/08 15:08:29;;;;;;;2.15;1.95;;;;;;;;;;6203278;28;20029;-89
2021/05/08 15:11:31;;;;;;;3.00;2.10;;;;;;;;;;6203862;28;20376;-89
2021/05/08 15:14:32;;;;;;;1.80;1.70;;;;;;;;;;6203560;28;20026;-87
2021/05/08 15:17:33;;;;;;;2.42;1.77;;;;;;;;;;6203431;28;20109;-87
2021/05/08 15:20:34;;;;;;;1.83;1.70;;;;;;;;;;6220109;28;20028;-87
2021/05/08 15:23:35;;;;;;;2.35;1.90;;;21.10;72.00;;;;;;6203533;28;20038;-88
2021/05/08 15:26:36;;;;;;;2.03;1.92;;;21.40;70.30;;;;;;6187031;28;20443;-87
2021/05/08 15:29:39;;;;;;;2.10;1.80;;;21.30;58.40;;;;;;6186613;28;20022;-87
2021/05/08 15:32:40;;;;;;;2.35;1.80;;;21.30;72.20;;;;;;6186732;28;20053;-89
2021/05/08 15:35:40;;;;;;;1.70;1.60;;;21.30;76.00;;;;;;6186575;28;20046;-89
2021/05/08 15:38:42;;;;;;;3.40;1.90;;;;;;;;;;6186873;28;20028;-88
2021/05/08 15:41:42;;;;;;;2.30;2.10;;;21.40;57.30;;;;;;6203272;28;20033;-88
2021/05/08 15:44:43;;;;;;;2.13;1.90;;;21.60;57.90;;;;;;6186414;28;20400;-89
2021/05/08 15:47:43;;;;;;;3.03;1.65;;;21.80;57.90;;;;;;6186187;28;20061;-88
2021/05/08 15:50:44;;;;;;;1.92;1.77;;;21.70;69.30;;;;;;6186354;28;20124;-87
2021/05/08 15:53:45;;;;;;;3.75;1.85;;;21.60;57.30;;;;;;6170171;28;20038;-88
2021/05/08 15:56:45;;;;;;;2.05;1.83;;;22.00;58.70;;;;;;6186716;28;20033;-88
2021/05/08 15:59:46;;;;;;;2.60;1.77;;;21.60;57.60;;;;;;6186586;28;20055;-88
2021/05/08 16:02:46;;;;;;;2.00;1.80;;;21.70;58.00;;;;;;6186502;28;20125;-88
2021/05/08 16:05:47;;;;;;;2.00;1.80;;;21.80;55.90;;;;;;6186431;28;20044;-88
2021/05/08 16:08:48;;;;;;;4.05;1.95;;;;;;;;;;6186137;28;20028;-88
2021/05/08 16:11:49;;;;;;;2.55;2.08;;;21.70;52.90;;;;;;6202714;28;20029;-89
2021/05/08 16:14:50;;;;;;;6.57;2.25;;;21.60;53.30;;;;;;6184448;28;20107;-79
2021/05/08 16:17:50;;;;;;;5.28;2.38;;;21.30;53.50;;;;;;6217217;28;20480;-83
2021/05/08 16:20:51;;;;;;;2.47;1.98;;;21.30;53.40;;;;;;6219302;28;20050;-81
2021/05/08 16:23:52;;;;;;;6.13;2.42;;;21.10;55.00;;;;;;6217487;28;20030;-82
2021/05/08 16:26:52;;;;;;;2.75;2.55;;;21.00;53.20;;;;;;6184348;28;20033;-86